createdAt,value
2023-01-17T00:00:39.966Z,1.73
2023-01-17T00:03:29.371Z,1.45
2023-01-17T00:06:34.950Z,0.43
2023-01-17T00:09:41.027Z,0.85
2023-01-17T00:12:31.152Z,0.38
2023-01-17T00:15:21.018Z,0.32
2023-01-17T00:18:11.033Z,0.43
2023-01-17T00:21:17.238Z,0.28
2023-01-17T00:24:23.992Z,0.17
2023-01-17T00:27:14.381Z,0.22
2023-01-17T00:30:01.836Z,0.60
2023-01-17T00:32:50.189Z,0.10
2023-01-17T00:35:41.785Z,2.55
2023-01-17T00:38:30.847Z,3.17
2023-01-17T00:41:18.617Z,0.32
2023-01-17T00:44:24.734Z,0.20
2023-01-17T00:47:31.068Z,2.17
2023-01-17T00:50:37.457Z,0.20
2023-01-17T00:53:45.262Z,0.80
2023-01-17T00:56:51.637Z,0.38
2023-01-17T00:59:58.679Z,0.10
2023-01-17T01:03:04.891Z,5.82
2023-01-17T01:06:10.963Z,1.38
2023-01-17T01:09:18.699Z,0.85
2023-01-17T01:12:25.091Z,0.40
2023-01-17T01:15:31.168Z,0.20
2023-01-17T01:18:37.403Z,1.00
2023-01-17T01:21:43.789Z,0.82
2023-01-17T01:24:51.375Z,0.25
2023-01-17T01:27:57.487Z,0.63
2023-01-17T01:31:03.666Z,0.20
2023-01-17T01:33:53.750Z,1.17
2023-01-17T01:36:42.480Z,0.20
2023-01-17T01:39:31.092Z,0.20
2023-01-17T01:42:21.144Z,0.10
2023-01-17T01:45:17.833Z,0.28
2023-01-17T01:48:12.770Z,0.45
2023-01-17T01:51:02.028Z,0.30
2023-01-17T01:53:54.507Z,0.03
2023-01-17T01:56:43.595Z,0.45
2023-01-17T01:59:35.182Z,0.10
2023-01-17T02:02:23.822Z,0.20
2023-01-17T02:05:16.191Z,0.75
2023-01-17T02:08:07.750Z,0.10
2023-01-17T02:10:57.828Z,0.28
2023-01-17T02:13:46.631Z,0.10
2023-01-17T02:16:49.303Z,0.10
2023-01-17T02:20:16.954Z,1.55
2023-01-17T02:23:44.119Z,0.20
2023-01-17T02:26:49.728Z,0.00
2023-01-17T02:30:22.272Z,1.65
2023-01-17T02:33:18.946Z,0.10
2023-01-17T02:36:11.119Z,0.10
2023-01-17T02:39:03.613Z,1.23
2023-01-17T02:41:55.515Z,0.00
2023-01-17T02:44:45.665Z,0.13
2023-01-17T02:47:36.296Z,0.15
2023-01-17T02:50:28.410Z,0.95
2023-01-17T02:53:29.610Z,3.13
2023-01-17T02:56:28.239Z,0.50
2023-01-17T02:59:29.355Z,0.30
2023-01-17T03:02:22.592Z,4.13
2023-01-17T03:05:20.384Z,0.00
2023-01-17T03:08:09.560Z,0.10
2023-01-17T03:10:58.961Z,0.45
2023-01-17T03:13:47.619Z,0.68
2023-01-17T03:16:36.596Z,3.92
2023-01-17T03:19:25.315Z,0.43
2023-01-17T03:22:15.317Z,0.30
2023-01-17T03:25:03.966Z,3.70
2023-01-17T03:27:52.604Z,3.53
2023-01-17T03:30:41.297Z,0.28
2023-01-17T03:33:30.228Z,1.30
2023-01-17T03:36:20.306Z,0.03
2023-01-17T03:39:10.600Z,0.55
2023-01-17T03:41:59.323Z,0.10
2023-01-17T03:44:47.903Z,1.88
2023-01-17T03:47:37.080Z,7.85
2023-01-17T03:50:25.922Z,1.55
2023-01-17T03:53:14.543Z,0.10
2023-01-17T03:56:04.698Z,1.27
2023-01-17T03:58:53.647Z,0.30
2023-01-17T04:01:42.525Z,0.00
2023-01-17T04:04:31.259Z,0.00
2023-01-17T04:07:20.499Z,0.25
2023-01-17T04:10:09.671Z,3.92
2023-01-17T04:13:02.457Z,1.45
2023-01-17T04:15:52.328Z,0.00
2023-01-17T04:18:41.044Z,1.30
2023-01-17T04:21:29.919Z,0.00
2023-01-17T04:24:18.550Z,1.65
2023-01-17T04:27:07.360Z,0.05
2023-01-17T04:29:57.299Z,0.10
2023-01-17T04:32:46.440Z,0.98
2023-01-17T04:35:35.064Z,0.38
2023-01-17T04:38:24.348Z,2.33
2023-01-17T04:41:12.978Z,2.05
2023-01-17T04:44:01.912Z,0.10
2023-01-17T04:46:52.066Z,0.30
2023-01-17T04:49:41.975Z,0.77
2023-01-17T04:52:31.447Z,0.55
2023-01-17T04:55:19.999Z,0.65
2023-01-17T04:58:08.617Z,0.30
2023-01-17T05:00:57.222Z,0.98
2023-01-17T05:03:47.369Z,0.65
2023-01-17T05:06:36.065Z,0.03
2023-01-17T05:09:24.833Z,0.00
2023-01-17T05:12:13.441Z,1.58
2023-01-17T05:15:02.069Z,1.27
2023-01-17T05:17:52.142Z,6.72
2023-01-17T05:20:42.185Z,1.65
2023-01-17T05:23:30.836Z,3.28
2023-01-17T05:26:19.396Z,5.35
2023-01-17T05:29:08.149Z,2.65
2023-01-17T05:31:56.782Z,20.02
2023-01-17T05:34:45.393Z,2.47
2023-01-17T05:37:35.405Z,7.43
2023-01-17T05:40:25.772Z,1.48
2023-01-17T05:43:14.426Z,2.00
2023-01-17T05:46:03.010Z,7.72
2023-01-17T05:48:51.692Z,47.22
2023-01-17T05:51:40.327Z,25.88
2023-01-17T05:54:30.296Z,24.67
2023-01-17T05:57:18.938Z,35.55
2023-01-17T06:00:08.802Z,23.42
2023-01-17T06:02:58.558Z,23.38
2023-01-17T06:05:47.472Z,39.35
2023-01-17T06:08:36.176Z,23.13
2023-01-17T06:11:29.388Z,34.58
2023-01-17T06:14:18.889Z,33.10
2023-01-17T06:17:08.667Z,33.05
2023-01-17T06:19:57.444Z,26.98
2023-01-17T06:22:46.234Z,33.97
2023-01-17T06:25:38.616Z,34.28
2023-01-17T06:28:28.790Z,33.80
2023-01-17T06:31:18.258Z,28.88
2023-01-17T06:34:07.077Z,20.15
2023-01-17T06:36:55.681Z,26.95
2023-01-17T06:39:44.259Z,20.35
2023-01-17T06:42:32.873Z,24.85
2023-01-17T06:45:23.150Z,23.65
2023-01-17T06:48:11.948Z,16.88
2023-01-17T06:51:00.623Z,24.25
2023-01-17T06:53:49.410Z,20.02
2023-01-17T06:56:38.359Z,17.67
2023-01-17T06:59:27.085Z,20.67
2023-01-17T07:02:17.106Z,14.65
2023-01-17T07:05:06.149Z,20.30
2023-01-17T07:07:54.771Z,15.95
2023-01-17T07:10:44.455Z,11.98
2023-01-17T07:13:36.477Z,16.70
2023-01-17T07:16:25.236Z,15.75
2023-01-17T07:19:15.606Z,16.90
2023-01-17T07:22:04.313Z,11.45
2023-01-17T07:24:58.694Z,13.65
2023-01-17T07:27:49.499Z,13.13
2023-01-17T07:30:38.150Z,11.45
2023-01-17T07:33:26.968Z,14.52
2023-01-17T07:36:16.980Z,9.75
2023-01-17T07:39:06.445Z,12.30
2023-01-17T07:41:55.204Z,9.40
2023-01-17T07:44:45.015Z,9.23
2023-01-17T07:47:34.075Z,11.07
2023-01-17T07:50:22.732Z,11.40
2023-01-17T07:53:12.848Z,8.50
2023-01-17T07:56:05.356Z,12.07
2023-01-17T07:58:53.884Z,11.38
2023-01-17T08:01:42.628Z,7.63
2023-01-17T08:04:34.725Z,10.60
2023-01-17T08:07:23.395Z,12.55
2023-01-17T08:10:17.890Z,7.88
2023-01-17T08:13:09.582Z,6.20
2023-01-17T08:16:02.251Z,11.00
2023-01-17T08:18:50.881Z,7.30
2023-01-17T08:21:39.610Z,6.00
2023-01-17T08:24:28.319Z,6.93
2023-01-17T08:27:18.260Z,10.18
2023-01-17T08:30:08.532Z,8.75
2023-01-17T08:32:57.415Z,6.60
2023-01-17T08:35:53.380Z,5.57
2023-01-17T08:38:42.117Z,6.55
2023-01-17T08:41:32.246Z,7.38
2023-01-17T08:44:22.462Z,6.43
2023-01-17T08:47:11.392Z,6.47
2023-01-17T08:50:00.327Z,7.70
2023-01-17T08:52:49.534Z,6.13
2023-01-17T08:55:40.884Z,7.53
2023-01-17T08:58:31.303Z,6.75
2023-01-17T09:01:21.504Z,5.70
2023-01-17T09:04:10.449Z,8.20
2023-01-17T09:06:59.179Z,3.60
2023-01-17T09:09:48.407Z,8.40
2023-01-17T09:12:37.482Z,3.33
2023-01-17T09:15:26.156Z,4.65
2023-01-17T09:18:16.103Z,5.25
2023-01-17T09:21:12.107Z,3.75
2023-01-17T09:24:01.602Z,3.00
2023-01-17T09:26:50.377Z,5.82
2023-01-17T09:29:39.123Z,4.47
2023-01-17T09:32:27.880Z,2.67
2023-01-17T09:35:18.589Z,2.53
2023-01-17T09:38:07.875Z,4.65
2023-01-17T09:40:56.642Z,2.80
2023-01-17T09:43:48.728Z,4.18
2023-01-17T09:46:40.963Z,2.40
2023-01-17T09:49:36.194Z,2.88
2023-01-17T09:52:26.380Z,3.20
2023-01-17T09:55:16.939Z,3.20
2023-01-17T09:58:08.565Z,4.13
2023-01-17T10:01:03.566Z,3.05
2023-01-17T10:04:03.017Z,3.28
2023-01-17T10:07:02.677Z,3.00
2023-01-17T10:10:05.206Z,3.25
2023-01-17T10:12:58.360Z,2.17
2023-01-17T10:16:05.946Z,2.20
2023-01-17T10:19:14.698Z,1.83
2023-01-17T10:22:16.581Z,2.75
2023-01-17T10:25:17.036Z,1.50
2023-01-17T10:28:11.003Z,1.38
2023-01-17T10:31:02.225Z,2.22
2023-01-17T10:33:53.681Z,3.97
2023-01-17T10:36:44.873Z,1.38
2023-01-17T10:39:33.858Z,1.95
2023-01-17T10:42:27.529Z,8.05
2023-01-17T10:45:19.018Z,790.78
2023-01-17T10:48:13.325Z,491.63
2023-01-17T10:51:08.005Z,395.83
2023-01-17T10:54:05.484Z,359.25
2023-01-17T10:56:54.145Z,368.27
2023-01-17T10:59:44.466Z,365.33
2023-01-17T11:02:39.950Z,369.40
2023-01-17T11:05:30.684Z,374.92
2023-01-17T11:08:21.981Z,371.08
2023-01-17T11:11:10.864Z,387.65
2023-01-17T11:14:01.691Z,389.70
2023-01-17T11:17:01.917Z,380.10
2023-01-17T11:19:51.290Z,362.23
2023-01-17T11:22:40.273Z,374.70
2023-01-17T11:25:29.217Z,380.80
2023-01-17T11:28:25.964Z,356.45
2023-01-17T11:31:35.228Z,353.55
2023-01-17T11:34:26.966Z,328.00
2023-01-17T11:37:20.297Z,324.92
2023-01-17T11:40:10.062Z,337.20
2023-01-17T11:43:05.651Z,310.65
2023-01-17T11:46:06.127Z,314.92
2023-01-17T11:48:56.463Z,294.55
2023-01-17T11:51:46.616Z,293.75
2023-01-17T11:54:39.469Z,272.90
2023-01-17T11:57:29.384Z,268.67
2023-01-17T12:00:21.901Z,280.77
2023-01-17T12:03:19.338Z,257.27
2023-01-17T12:06:12.514Z,247.05
2023-01-17T12:09:11.449Z,256.45
2023-01-17T12:12:23.473Z,233.88
2023-01-17T12:15:21.226Z,241.20
2023-01-17T12:18:20.898Z,233.88
2023-01-17T12:21:20.613Z,224.30
2023-01-17T12:24:26.212Z,231.95
2023-01-17T12:27:20.563Z,228.50
2023-01-17T12:30:17.793Z,219.43
2023-01-17T12:33:21.726Z,202.15
2023-01-17T12:36:17.616Z,208.77
2023-01-17T12:39:11.771Z,194.30
2023-01-17T12:42:05.417Z,200.50
2023-01-17T12:44:57.928Z,184.60
2023-01-17T12:47:49.285Z,188.68
2023-01-17T12:50:40.681Z,191.55
2023-01-17T12:53:33.296Z,181.02
2023-01-17T12:56:27.618Z,166.60
2023-01-17T12:59:21.692Z,178.82
2023-01-17T13:02:17.736Z,169.25
2023-01-17T13:05:10.753Z,159.63
2023-01-17T13:08:06.296Z,163.00
2023-01-17T13:10:58.489Z,152.32
2023-01-17T13:13:51.330Z,149.18
2023-01-17T13:16:45.567Z,150.57
2023-01-17T13:19:41.643Z,148.93
2023-01-17T13:22:30.603Z,138.52
2023-01-17T13:25:34.298Z,136.95
2023-01-17T13:28:30.868Z,141.50
2023-01-17T13:31:28.658Z,129.65
2023-01-17T13:34:30.343Z,136.18
2023-01-17T13:37:41.341Z,129.80
2023-01-17T13:40:34.023Z,128.77
2023-01-17T13:43:25.708Z,134.98
2023-01-17T13:46:14.269Z,131.27
2023-01-17T13:49:33.965Z,119.43
2023-01-17T13:52:33.521Z,110.70
2023-01-17T13:55:46.304Z,120.90
2023-01-17T13:58:58.678Z,113.80
2023-01-17T14:01:54.410Z,111.70
2023-01-17T14:05:12.109Z,110.80
2023-01-17T14:08:02.561Z,103.78
2023-01-17T14:10:52.032Z,90.45
2023-01-17T14:13:41.337Z,96.68
2023-01-17T14:16:31.363Z,90.30
2023-01-17T14:19:27.029Z,95.65
2023-01-17T14:22:24.584Z,91.68
2023-01-17T14:25:17.416Z,89.03
2023-01-17T14:28:08.497Z,76.90
2023-01-17T14:30:57.613Z,44.08
2023-01-17T14:33:46.378Z,11.23
2023-01-17T14:36:36.733Z,3.75
2023-01-17T14:39:26.839Z,3.25
2023-01-17T14:42:17.265Z,5.10
2023-01-17T14:45:07.503Z,10.50
2023-01-17T14:47:58.156Z,7.45
2023-01-17T14:50:48.627Z,8.45
2023-01-17T14:53:37.351Z,11.10
2023-01-17T14:56:28.277Z,11.30
2023-01-17T14:59:18.551Z,5.55
2023-01-17T15:02:12.994Z,11.18
2023-01-17T15:05:01.655Z,10.82
2023-01-17T15:07:53.045Z,6.57
2023-01-17T15:10:48.715Z,9.88
2023-01-17T15:13:44.624Z,5.07
2023-01-17T15:16:36.242Z,8.23
2023-01-17T15:19:24.992Z,4.70
2023-01-17T15:22:14.126Z,3.65
2023-01-17T15:25:02.932Z,4.82
2023-01-17T15:27:51.931Z,5.15
2023-01-17T15:31:02.209Z,5.15
2023-01-17T15:33:54.348Z,4.43
2023-01-17T15:36:43.132Z,4.90
2023-01-17T15:39:32.449Z,4.05
2023-01-17T15:42:24.040Z,4.35
2023-01-17T15:45:15.999Z,3.50
2023-01-17T15:48:40.507Z,2.72
2023-01-17T15:51:33.394Z,4.40
2023-01-17T15:54:26.839Z,4.72
2023-01-17T15:57:37.139Z,2.55
2023-01-17T16:00:32.486Z,2.35
2023-01-17T16:03:24.039Z,4.32
2023-01-17T16:06:30.734Z,2.53
2023-01-17T16:09:22.561Z,4.93
2023-01-17T16:12:11.272Z,3.80
2023-01-17T16:15:11.712Z,6.72
2023-01-17T16:18:04.717Z,3.92
2023-01-17T16:20:55.377Z,3.83
2023-01-17T16:23:45.404Z,2.50
2023-01-17T16:26:33.987Z,4.15
2023-01-17T16:29:22.972Z,2.85
2023-01-17T16:32:11.546Z,4.07
2023-01-17T16:35:00.276Z,2.58
2023-01-17T16:37:50.976Z,6.85
2023-01-17T16:40:43.817Z,2.15
2023-01-17T16:43:32.559Z,3.88
2023-01-17T16:46:23.626Z,7.95
2023-01-17T16:49:12.283Z,4.22
2023-01-17T16:52:01.295Z,4.90
2023-01-17T16:54:49.984Z,1.65
2023-01-17T16:57:40.162Z,5.85
2023-01-17T17:00:28.836Z,2.67
2023-01-17T17:03:18.162Z,2.10
2023-01-17T17:06:07.132Z,6.80
2023-01-17T17:08:55.886Z,3.03
2023-01-17T17:11:44.498Z,4.97
2023-01-17T17:14:34.616Z,3.83
2023-01-17T17:17:23.894Z,2.83
2023-01-17T17:20:14.204Z,3.00
2023-01-17T17:23:02.805Z,3.45
2023-01-17T17:25:57.077Z,4.57
2023-01-17T17:28:45.585Z,2.95
2023-01-17T17:31:36.377Z,3.97
2023-01-17T17:34:27.648Z,4.85
2023-01-17T17:37:16.895Z,5.53
2023-01-17T17:40:06.955Z,5.45
2023-01-17T17:42:55.702Z,7.70
2023-01-17T17:45:44.314Z,5.18
2023-01-17T17:48:34.474Z,7.25
2023-01-17T17:51:25.613Z,8.93
2023-01-17T17:54:15.867Z,8.63
2023-01-17T17:57:04.709Z,9.98
2023-01-17T17:59:56.049Z,13.02
2023-01-17T18:02:44.786Z,9.57
2023-01-17T18:05:34.825Z,9.25
2023-01-17T18:08:23.791Z,8.88
2023-01-17T18:11:14.976Z,9.57
2023-01-17T18:14:05.999Z,13.85
2023-01-17T18:16:54.722Z,10.13
2023-01-17T18:19:46.013Z,10.60
2023-01-17T18:22:36.039Z,9.05
2023-01-17T18:25:24.713Z,9.15
2023-01-17T18:28:13.327Z,7.82
2023-01-17T18:31:07.546Z,8.07
2023-01-17T18:33:56.996Z,7.28
2023-01-17T18:36:45.783Z,9.43
2023-01-17T18:39:35.868Z,8.00
2023-01-17T18:42:27.382Z,6.88
2023-01-17T18:45:16.218Z,7.22
2023-01-17T18:48:05.102Z,6.63
2023-01-17T18:50:57.623Z,6.47
2023-01-17T18:53:47.576Z,6.38
2023-01-17T18:56:37.594Z,5.38
2023-01-17T18:59:26.231Z,5.03
2023-01-17T19:02:15.631Z,5.72
2023-01-17T19:05:05.569Z,6.65
2023-01-17T19:07:56.821Z,4.68
2023-01-17T19:10:46.599Z,6.82
2023-01-17T19:13:37.954Z,4.70
2023-01-17T19:16:28.006Z,4.57
2023-01-17T19:19:17.695Z,3.22
2023-01-17T19:22:06.384Z,5.30
2023-01-17T19:24:55.102Z,5.03
2023-01-17T19:27:43.784Z,4.35
2023-01-17T19:30:34.302Z,7.82
2023-01-17T19:33:25.872Z,2.97
2023-01-17T19:36:17.068Z,3.05
2023-01-17T19:39:09.286Z,4.35
2023-01-17T19:41:57.924Z,3.85
2023-01-17T19:44:46.564Z,9.90
2023-01-17T19:47:36.697Z,4.63
2023-01-17T19:50:25.396Z,3.35
2023-01-17T19:53:14.126Z,4.55
2023-01-17T19:56:06.305Z,2.85
2023-01-17T19:58:57.084Z,2.60
2023-01-17T20:01:45.876Z,4.70
2023-01-17T20:04:35.965Z,3.28
2023-01-17T20:07:24.848Z,3.80
2023-01-17T20:10:13.553Z,3.88
2023-01-17T20:13:02.167Z,4.72
2023-01-17T20:15:50.788Z,2.70
2023-01-17T20:18:39.979Z,2.30
2023-01-17T20:21:31.031Z,2.25
2023-01-17T20:24:19.662Z,2.63
2023-01-17T20:27:08.303Z,3.67
2023-01-17T20:29:56.996Z,2.38
2023-01-17T20:32:46.013Z,2.08
2023-01-17T20:35:34.702Z,2.17
2023-01-17T20:38:27.345Z,4.20
2023-01-17T20:41:17.502Z,2.35
2023-01-17T20:44:07.604Z,2.28
2023-01-17T20:46:56.253Z,2.33
2023-01-17T20:49:44.863Z,4.57
2023-01-17T20:52:33.558Z,3.10
2023-01-17T20:55:24.297Z,2.20
2023-01-17T20:58:12.933Z,1.52
2023-01-17T21:01:01.833Z,6.72
2023-01-17T21:03:53.143Z,1.90
2023-01-17T21:06:42.892Z,1.52
2023-01-17T21:09:31.539Z,1.90
2023-01-17T21:12:22.605Z,1.77
2023-01-17T21:15:23.872Z,2.83
2023-01-17T21:18:12.788Z,2.95
2023-01-17T21:21:05.667Z,1.73
2023-01-17T21:23:57.313Z,7.45
2023-01-17T21:26:47.288Z,1.58
2023-01-17T21:29:40.815Z,1.58
2023-01-17T21:32:31.469Z,2.10
2023-01-17T21:35:20.981Z,7.22
2023-01-17T21:38:10.717Z,7.47
2023-01-17T21:41:02.853Z,6.68
2023-01-17T21:43:57.561Z,5.40
2023-01-17T21:46:48.440Z,5.05
2023-01-17T21:49:39.081Z,4.53
2023-01-17T21:52:34.268Z,8.40
2023-01-17T21:55:41.012Z,4.32
2023-01-17T21:58:46.099Z,5.47
2023-01-17T22:01:34.998Z,2.83
2023-01-17T22:04:25.623Z,5.65
2023-01-17T22:07:15.829Z,7.13
2023-01-17T22:10:04.756Z,3.47
2023-01-17T22:12:53.506Z,4.47
2023-01-17T22:15:43.758Z,3.58
2023-01-17T22:18:33.198Z,4.80
2023-01-17T22:21:24.669Z,4.22
2023-01-17T22:24:15.927Z,3.55
2023-01-17T22:27:04.546Z,3.00
2023-01-17T22:29:53.115Z,6.57
2023-01-17T22:32:41.886Z,3.97
2023-01-17T22:35:30.520Z,2.25
2023-01-17T22:38:20.950Z,3.90
2023-01-17T22:41:13.065Z,3.17
2023-01-17T22:44:03.162Z,2.05
2023-01-17T22:46:51.891Z,2.85
2023-01-17T22:49:41.103Z,2.00
2023-01-17T22:52:31.438Z,1.73
2023-01-17T22:55:23.120Z,1.63
2023-01-17T22:58:11.836Z,1.50
2023-01-17T23:01:05.938Z,2.83
2023-01-17T23:03:56.050Z,2.83
2023-01-17T23:06:45.071Z,1.17
2023-01-17T23:09:33.803Z,1.92
2023-01-17T23:12:23.995Z,1.58
2023-01-17T23:15:30.390Z,4.03
2023-01-17T23:18:36.868Z,2.72
2023-01-17T23:21:45.515Z,1.80
2023-01-17T23:24:34.100Z,1.13
2023-01-17T23:27:43.939Z,1.00
2023-01-17T23:30:35.504Z,1.20
2023-01-17T23:33:24.350Z,1.17
2023-01-17T23:36:13.185Z,1.52
2023-01-17T23:39:01.769Z,0.88
2023-01-17T23:42:08.195Z,1.02
2023-01-17T23:44:58.263Z,4.60
2023-01-17T23:47:46.911Z,1.85
2023-01-17T23:50:35.527Z,1.33
2023-01-17T23:53:24.205Z,2.05
2023-01-17T23:56:16.079Z,1.00
2023-01-17T23:59:05.756Z,1.30
